Terminal Aerodrome Forecast
Issued by NWS Sterling, VA

Current Version | Previous Version | Text Only | Print | Product List | Glossary Off
Versions: 1 2 3 4 5 6 7 8 9 10 11 12 13 14 15 16 17 18 19 20 21 22 23 24 25

000
FTUS41 KLWX 161100 RRA
TAFDCA
TAF
KDCA 161144Z 1612/1712 VRB04KT 6SM BR BKN110
     FM161700 17008KT 5SM -SHRA OVC040
     FM162200 20004KT P6SM -DZ OVC020
     FM170200 24006KT P6SM BKN050
     FM171000 27008KT P6SM SCT050=

USA.gov is the U.S. government's official web portal to all federal, state and local government web resources and services.